Time;durP1;ratioP1;P1;durP2;ratioP2;P2;SDS_P1;SDS_P2;PMS_P1;PMS_P2;Temp;Humidity;BMP_temperature;BMP_pressure;BME280_temperature;BME280_humidity;BME280_pressure;Samples;Min_cycle;Max_cycle;Signal;HPM_P1;HPM_P2
2021/07/08 00:00:50;;;;;;;9.05;4.50;;;17.10;99.90;;;;;;5031542;28;20037;-77
2021/07/08 00:03:15;;;;;;;10.00;3.97;;;16.70;99.90;;;;;;5033276;28;20032;-77
2021/07/08 00:05:42;;;;;;;4.88;3.88;;;16.70;99.90;;;;;;5031583;28;20037;-77
2021/07/08 00:08:10;;;;;;;6.90;3.80;;;17.00;99.90;;;;;;5032300;28;20082;-76
2021/07/08 00:10:47;;;;;;;9.00;3.95;;;17.00;99.90;;;;;;5012947;28;20469;-77
2021/07/08 00:13:14;;;;;;;7.47;4.00;;;16.80;99.90;;;;;;5021260;28;20032;-76
2021/07/08 00:15:40;;;;;;;7.57;4.30;;;16.90;99.90;;;;;;5031955;28;20472;-76
2021/07/08 00:18:08;;;;;;;9.63;4.43;;;16.80;99.90;;;;;;5032240;28;20041;-76
2021/07/08 00:20:34;;;;;;;11.10;4.40;;;16.70;99.90;;;;;;5032130;28;20491;-77
2021/07/08 00:23:00;;;;;;;9.90;4.47;;;16.90;99.90;;;;;;5030859;28;20029;-77
2021/07/08 00:25:29;;;;;;;8.15;3.88;;;16.90;99.90;;;;;;5032174;28;20110;-77
2021/07/08 00:27:55;;;;;;;9.80;4.28;;;16.80;99.90;;;;;;5031838;28;20034;-77
2021/07/08 00:30:21;;;;;;;9.05;4.55;;;16.70;99.90;;;;;;5031355;28;20021;-77
2021/07/08 00:32:47;;;;;;;11.82;4.47;;;16.50;99.90;;;;;;5032004;28;20040;-76
2021/07/08 00:35:13;;;;;;;8.77;3.92;;;16.50;99.90;;;;;;5030474;28;20068;-76
2021/07/08 00:37:39;;;;;;;5.97;3.88;;;16.50;99.90;;;;;;5030780;28;20030;-76
2021/07/08 00:40:07;;;;;;;5.13;3.60;;;16.60;99.90;;;;;;5031789;28;20041;-76
2021/07/08 00:42:33;;;;;;;4.13;3.70;;;16.50;99.90;;;;;;5031860;28;20025;-76
2021/07/08 00:44:58;;;;;;;7.20;3.90;;;16.60;99.90;;;;;;5031806;28;20107;-77
2021/07/08 00:47:24;;;;;;;7.13;3.90;;;16.60;99.90;;;;;;5031869;28;20103;-77
2021/07/08 00:49:50;;;;;;;16.52;5.25;;;16.70;99.90;;;;;;5031828;28;20061;-76
2021/07/08 00:52:17;;;;;;;13.00;4.75;;;16.60;99.90;;;;;;5030528;28;20025;-77
2021/07/08 00:54:42;;;;;;;10.35;4.32;;;16.60;99.90;;;;;;5031512;28;20121;-76
2021/07/08 00:57:08;;;;;;;8.60;4.35;;;16.40;99.90;;;;;;5031666;28;20104;-77
2021/07/08 00:59:45;;;;;;;6.05;4.00;;;16.50;99.90;;;;;;5030450;28;20116;-76
2021/07/08 01:02:14;;;;;;;7.28;4.32;;;16.60;99.90;;;;;;5031701;28;20025;-76
2021/07/08 01:04:44;;;;;;;8.30;4.00;;;16.60;99.90;;;;;;5031366;28;20391;-78
2021/07/08 01:07:18;;;;;;;8.68;4.07;;;16.60;99.90;;;;;;5030176;28;20022;-77
2021/07/08 01:09:43;;;;;;;6.68;4.20;;;16.60;99.90;;;;;;5027294;28;20021;-76
2021/07/08 01:12:09;;;;;;;7.53;3.63;;;16.60;99.90;;;;;;5031575;28;20494;-77
2021/07/08 01:14:35;;;;;;;10.57;4.00;;;16.70;99.90;;;;;;5031396;28;20492;-76
2021/07/08 01:17:03;;;;;;;10.65;4.50;;;16.60;99.90;;;;;;5030197;28;20029;-77
2021/07/08 01:19:30;;;;;;;16.25;4.53;;;16.70;99.90;;;;;;5031506;28;20026;-77
2021/07/08 01:21:56;;;;;;;10.57;4.03;;;16.70;99.90;;;;;;5030106;28;20021;-77
2021/07/08 01:24:21;;;;;;;6.53;4.20;;;16.70;99.90;;;;;;5031315;28;20036;-78
2021/07/08 01:26:48;;;;;;;10.05;4.05;;;16.70;99.90;;;;;;5031489;28;20396;-77
2021/07/08 01:29:15;;;;;;;6.93;4.38;;;16.70;99.90;;;;;;5031454;28;20027;-77
2021/07/08 01:31:40;;;;;;;10.25;4.50;;;16.60;99.90;;;;;;5030440;28;20021;-76
2021/07/08 01:34:06;;;;;;;8.52;4.03;;;16.60;99.90;;;;;;5030402;28;20387;-76
2021/07/08 01:36:31;;;;;;;6.93;4.43;;;16.60;99.90;;;;;;5031096;28;20053;-76
2021/07/08 01:38:57;;;;;;;8.20;4.03;;;16.50;99.90;;;;;;5031391;28;20452;-76
2021/07/08 01:41:22;;;;;;;9.15;4.82;;;16.50;99.90;;;;;;5030058;28;20545;-76
2021/07/08 01:43:48;;;;;;;11.40;4.13;;;16.70;99.90;;;;;;5030037;28;20052;-76
2021/07/08 01:46:16;;;;;;;6.65;3.83;;;16.50;99.90;;;;;;5031019;28;20037;-76
2021/07/08 01:48:43;;;;;;;7.90;4.25;;;16.40;99.90;;;;;;5030005;28;20168;-79
2021/07/08 01:51:45;;;;;;;7.50;3.92;;;16.40;99.90;;;;;;5036023;28;20021;-77
2021/07/08 01:54:11;;;;;;;9.35;4.47;;;16.50;99.90;;;;;;5025438;28;20033;-77
2021/07/08 01:56:38;;;;;;;9.50;4.30;;;16.50;99.90;;;;;;5035330;28;20021;-77
2021/07/08 01:59:04;;;;;;;10.63;4.57;;;16.50;99.90;;;;;;5035915;28;20373;-77
2021/07/08 02:01:29;;;;;;;8.20;4.07;;;16.60;99.90;;;;;;5035809;28;20029;-77
2021/07/08 02:03:55;;;;;;;6.57;4.25;;;16.70;99.90;;;;;;5034265;28;20086;-78
2021/07/08 02:06:22;;;;;;;10.05;4.78;;;16.60;99.90;;;;;;5033682;28;20373;-77
2021/07/08 02:08:48;;;;;;;6.78;3.83;;;16.50;99.90;;;;;;5030281;28;20502;-76
2021/07/08 02:11:13;;;;;;;6.55;4.18;;;16.60;99.90;;;;;;5021241;28;20030;-77
2021/07/08 02:13:39;;;;;;;8.48;3.55;;;16.70;99.90;;;;;;5034465;28;20391;-78
2021/07/08 02:16:06;;;;;;;9.43;4.13;;;16.70;99.90;;;;;;5033526;28;20159;-77
2021/07/08 02:18:32;;;;;;;8.23;4.90;;;16.70;99.90;;;;;;5034458;28;20503;-76
2021/07/08 02:20:59;;;;;;;12.70;4.75;;;16.70;99.90;;;;;;5034979;28;20119;-77
2021/07/08 02:23:24;;;;;;;13.68;5.88;;;16.60;99.90;;;;;;5036217;28;20037;-77
2021/07/08 02:25:50;;;;;;;12.07;4.93;;;16.60;99.90;;;;;;5035080;28;20076;-78
2021/07/08 02:28:15;;;;;;;12.00;4.47;;;16.70;99.90;;;;;;5035309;28;20040;-77
2021/07/08 02:30:41;;;;;;;8.82;4.63;;;16.60;99.90;;;;;;5034350;28;20029;-77
2021/07/08 02:33:07;;;;;;;13.15;5.93;;;16.50;99.90;;;;;;5034528;28;20029;-77
2021/07/08 02:35:34;;;;;;;11.65;5.25;;;16.50;99.90;;;;;;5035366;28;20097;-77
2021/07/08 02:38:00;;;;;;;7.15;4.55;;;16.50;99.90;;;;;;5032949;28;20095;-77
2021/07/08 02:40:31;;;;;;;10.63;5.07;;;16.50;99.90;;;;;;5032826;28;20034;-77
2021/07/08 02:42:58;;;;;;;12.27;4.90;;;16.50;99.90;;;;;;5034217;28;20028;-77
2021/07/08 02:45:27;;;;;;;9.43;4.57;;;16.30;99.90;;;;;;5032883;28;20100;-76
2021/07/08 02:47:53;;;;;;;9.05;4.40;;;16.30;99.90;;;;;;5034091;28;20032;-77
2021/07/08 02:50:20;;;;;;;12.63;5.45;;;16.40;99.90;;;;;;5019606;28;20112;-77
2021/07/08 02:52:47;;;;;;;9.02;5.22;;;16.20;99.90;;;;;;5032651;28;20025;-77
2021/07/08 02:55:13;;;;;;;16.67;5.30;;;16.00;99.90;;;;;;5034176;28;20026;-76
2021/07/08 02:57:39;;;;;;;6.95;4.50;;;15.90;99.90;;;;;;5033014;28;20077;-75
2021/07/08 03:00:07;;;;;;;8.23;4.45;;;16.10;99.90;;;;;;5033490;28;20044;-75
2021/07/08 03:02:32;;;;;;;8.63;4.05;;;16.30;99.90;;;;;;5032816;28;20025;-75
2021/07/08 03:04:58;;;;;;;6.57;4.15;;;16.50;99.90;;;;;;5032036;28;20048;-75
2021/07/08 03:07:23;;;;;;;7.15;4.63;;;16.70;99.90;;;;;;5033344;28;20036;-75
2021/07/08 03:09:49;;;;;;;10.57;4.53;;;16.60;99.90;;;;;;5033473;28;20056;-75
2021/07/08 03:12:15;;;;;;;8.52;4.63;;;16.60;99.90;;;;;;5032123;28;20427;-75
2021/07/08 03:14:40;;;;;;;7.30;4.13;;;16.80;99.90;;;;;;5033143;28;20021;-76
2021/07/08 03:17:06;;;;;;;8.20;4.47;;;16.70;99.90;;;;;;5033255;28;20030;-76
2021/07/08 03:19:31;;;;;;;13.35;4.75;;;16.70;99.90;;;;;;5033691;28;20144;-75
2021/07/08 03:21:57;;;;;;;9.40;4.35;;;16.60;99.90;;;;;;5031901;28;20071;-75
2021/07/08 03:24:22;;;;;;;10.27;4.85;;;16.50;99.90;;;;;;5033074;28;20030;-75
2021/07/08 03:26:48;;;;;;;5.65;4.10;;;16.50;99.90;;;;;;5033075;28;20033;-75
2021/07/08 03:29:13;;;;;;;12.13;4.72;;;16.50;99.90;;;;;;5033021;28;20044;-75
2021/07/08 03:31:39;;;;;;;14.05;6.28;;;16.50;99.90;;;;;;5033037;28;20100;-74
2021/07/08 03:34:04;;;;;;;15.02;5.22;;;16.60;99.90;;;;;;5031608;28;20389;-76
2021/07/08 03:36:30;;;;;;;9.30;5.05;;;16.50;99.90;;;;;;5032877;28;20026;-74
2021/07/08 03:38:55;;;;;;;10.68;4.95;;;16.40;99.90;;;;;;5032897;28;20025;-75
2021/07/08 03:41:21;;;;;;;10.23;5.22;;;16.50;99.90;;;;;;5031603;28;20037;-75
2021/07/08 03:43:47;;;;;;;8.93;4.97;;;16.50;99.90;;;;;;5032736;28;20095;-75
2021/07/08 03:46:12;;;;;;;11.68;4.70;;;16.50;99.90;;;;;;5032477;28;20029;-76
2021/07/08 03:48:38;;;;;;;11.57;5.30;;;16.50;99.90;;;;;;5032619;28;20037;-75
2021/07/08 03:51:03;;;;;;;10.82;4.68;;;16.60;99.90;;;;;;5032637;28;20447;-76
2021/07/08 03:53:29;;;;;;;6.55;4.50;;;16.70;99.90;;;;;;5032638;28;20034;-76
2021/07/08 03:55:54;;;;;;;11.25;5.35;;;16.70;99.90;;;;;;5032349;28;20026;-76
2021/07/08 03:58:20;;;;;;;12.13;5.30;;;16.70;99.90;;;;;;5031245;28;20025;-77
2021/07/08 04:00:45;;;;;;;12.95;5.20;;;16.70;99.90;;;;;;5031220;28;20442;-75
2021/07/08 04:03:14;;;;;;;9.57;5.03;;;16.70;99.90;;;;;;5032304;28;20527;-75
2021/07/08 04:05:42;;;;;;;11.30;5.30;;;16.80;99.90;;;;;;5032290;28;20029;-75
2021/07/08 04:08:09;;;;;;;7.45;4.82;;;16.80;99.90;;;;;;5032288;28;20021;-74
2021/07/08 04:10:37;;;;;;;15.75;5.47;;;16.70;99.90;;;;;;5032441;28;20021;-74
2021/07/08 04:13:09;;;;;;;11.57;5.00;;;16.60;99.90;;;;;;5032131;28;20049;-74
2021/07/08 04:15:35;;;;;;;11.10;5.53;;;16.50;99.90;;;;;;5032071;28;20032;-75
2021/07/08 04:18:03;;;;;;;8.32;5.55;;;16.50;99.90;;;;;;5030972;28;20476;-75
2021/07/08 04:20:29;;;;;;;10.20;6.00;;;16.50;99.90;;;;;;5032207;28;20044;-74
2021/07/08 04:22:55;;;;;;;11.13;5.07;;;16.60;99.90;;;;;;5030970;28;20471;-75
2021/07/08 04:25:21;;;;;;;12.55;5.63;;;16.60;99.90;;;;;;5030915;28;20028;-75
2021/07/08 04:27:47;;;;;;;8.82;5.60;;;16.60;99.90;;;;;;5031991;28;20025;-75
2021/07/08 04:30:16;;;;;;;10.77;5.63;;;16.50;99.90;;;;;;5030816;28;20372;-75
2021/07/08 04:32:42;;;;;;;13.00;5.60;;;16.50;99.90;;;;;;5031969;28;20112;-75
2021/07/08 04:35:11;;;;;;;7.50;5.43;;;16.70;99.90;;;;;;5031827;28;20068;-75
2021/07/08 04:37:42;;;;;;;10.38;5.63;;;16.90;99.90;;;;;;5030616;28;20056;-75
2021/07/08 04:40:14;;;;;;;10.48;5.95;;;16.90;99.90;;;;;;5030677;28;20057;-75
2021/07/08 04:42:40;;;;;;;11.85;6.00;;;16.80;99.90;;;;;;5031906;28;20021;-75
2021/07/08 04:45:07;;;;;;;8.90;5.25;;;16.80;99.90;;;;;;5031614;28;20105;-75
2021/07/08 04:47:32;;;;;;;14.05;5.45;;;17.00;99.90;;;;;;5030326;28;20035;-74
2021/07/08 04:49:59;;;;;;;10.52;6.25;;;17.20;99.90;;;;;;5031914;28;20018;-75
2021/07/08 04:52:24;;;;;;;12.25;5.95;;;17.20;99.90;;;;;;5031865;28;20024;-75
2021/07/08 04:54:50;;;;;;;6.10;5.50;;;17.20;99.90;;;;;;5031683;28;20022;-76
2021/07/08 04:57:18;;;;;;;7.63;5.85;;;17.20;99.90;;;;;;5031702;28;20071;-75
2021/07/08 04:59:44;;;;;;;9.98;5.97;;;17.20;99.90;;;;;;5030404;28;20455;-76
2021/07/08 05:02:10;;;;;;;12.80;5.53;;;17.30;99.90;;;;;;5031912;28;20017;-76
2021/07/08 05:04:35;;;;;;;10.98;5.57;;;17.30;99.90;;;;;;5031429;28;20034;-75
2021/07/08 05:07:01;;;;;;;10.10;6.57;;;17.40;99.90;;;;;;5031460;28;20026;-73
2021/07/08 05:09:26;;;;;;;11.43;5.65;;;17.50;99.90;;;;;;5030088;28;20365;-74
2021/07/08 05:11:52;;;;;;;9.95;4.55;;;17.60;99.90;;;;;;5030102;28;20336;-76
2021/07/08 05:14:18;;;;;;;7.60;5.15;;;17.60;99.90;;;;;;5033630;28;20049;-77
2021/07/08 05:16:43;;;;;;;9.60;4.88;;;17.70;99.90;;;;;;5036228;28;20032;-77
2021/07/08 05:19:09;;;;;;;11.38;5.25;;;17.60;99.90;;;;;;5040956;28;20029;-78
2021/07/08 05:21:46;;;;;;;9.05;5.53;;;17.60;99.90;;;;;;5041722;28;20049;-77
2021/07/08 05:24:12;;;;;;;6.90;4.93;;;17.30;99.90;;;;;;5042502;28;20021;-76
2021/07/08 05:26:37;;;;;;;8.80;5.68;;;17.10;99.90;;;;;;5038047;28;20112;-76
2021/07/08 05:29:03;;;;;;;10.85;5.65;;;17.00;99.90;;;;;;5034838;28;20029;-76
2021/07/08 05:31:29;;;;;;;9.80;5.10;;;17.10;99.90;;;;;;5034527;28;20025;-76
2021/07/08 05:33:54;;;;;;;9.23;4.95;;;17.10;99.90;;;;;;5037257;28;20028;-76
2021/07/08 05:36:20;;;;;;;8.18;5.07;;;17.20;99.90;;;;;;5037407;28;20108;-76
2021/07/08 05:38:45;;;;;;;9.73;5.70;;;17.20;99.90;;;;;;5038437;28;20029;-77
2021/07/08 05:41:11;;;;;;;8.95;5.35;;;17.20;99.90;;;;;;5041888;28;20025;-77
2021/07/08 05:43:36;;;;;;;7.57;5.78;;;17.30;99.90;;;;;;5036492;28;20112;-76
2021/07/08 05:46:02;;;;;;;9.98;5.82;;;17.30;99.90;;;;;;5033457;28;20480;-76
2021/07/08 05:48:27;;;;;;;10.13;6.47;;;17.20;99.90;;;;;;5033569;28;20034;-76
2021/07/08 05:50:53;;;;;;;10.30;5.85;;;17.10;99.90;;;;;;5035002;28;20022;-75
2021/07/08 05:53:20;;;;;;;11.80;6.50;;;17.00;99.90;;;;;;5034849;28;20029;-75
2021/07/08 05:55:45;;;;;;;10.63;6.13;;;17.20;99.90;;;;;;5034643;28;20475;-76
2021/07/08 05:58:11;;;;;;;9.88;6.28;;;17.20;99.90;;;;;;5034925;28;20040;-76
2021/07/08 06:00:36;;;;;;;10.63;6.25;;;17.50;99.90;;;;;;5033431;28;20053;-76
2021/07/08 06:03:02;;;;;;;15.18;7.43;;;17.70;99.90;;;;;;5033306;28;20060;-76
2021/07/08 06:05:28;;;;;;;15.57;7.13;;;17.90;99.90;;;;;;5033177;28;20033;-76
2021/07/08 06:07:53;;;;;;;10.73;6.75;;;18.00;99.90;;;;;;5035012;28;20030;-76
2021/07/08 06:10:19;;;;;;;10.93;6.10;;;18.00;99.90;;;;;;5018849;28;20070;-76
2021/07/08 06:12:46;;;;;;;11.82;6.35;;;18.00;99.90;;;;;;5032944;28;20033;-76
2021/07/08 06:15:12;;;;;;;11.73;5.68;;;18.10;99.90;;;;;;5034267;28;20018;-76
2021/07/08 06:17:37;;;;;;;8.23;6.20;;;18.20;99.90;;;;;;5033041;28;20032;-75
2021/07/08 06:20:04;;;;;;;8.80;6.28;;;18.20;99.90;;;;;;5034487;28;20148;-75
2021/07/08 06:22:30;;;;;;;10.50;5.88;;;18.20;99.90;;;;;;5033205;28;20021;-76
2021/07/08 06:24:55;;;;;;;8.85;5.80;;;18.30;99.90;;;;;;5032965;28;20087;-75
2021/07/08 06:27:21;;;;;;;9.13;6.78;;;18.20;99.90;;;;;;5034002;28;20025;-75
2021/07/08 06:29:46;;;;;;;10.30;7.05;;;18.10;99.90;;;;;;5034247;28;20621;-75
2021/07/08 06:32:16;;;;;;;10.05;7.18;;;18.00;99.90;;;;;;5032915;28;20013;-74
2021/07/08 06:34:41;;;;;;;9.32;6.57;;;18.00;99.90;;;;;;5033906;28;20024;-74
2021/07/08 06:37:07;;;;;;;8.23;6.68;;;18.00;99.90;;;;;;5033980;28;20423;-75
2021/07/08 06:39:32;;;;;;;10.63;7.45;;;18.10;99.90;;;;;;5033873;28;20072;-75
2021/07/08 06:42:01;;;;;;;12.65;8.18;;;17.90;99.90;;;;;;5033363;28;20029;-74
2021/07/08 06:44:26;;;;;;;14.35;8.82;;;17.90;99.90;;;;;;5033203;28;20034;-75
2021/07/08 06:46:54;;;;;;;11.88;8.90;;;17.50;99.90;;;;;;5033362;28;20029;-74
2021/07/08 06:49:19;;;;;;;13.25;9.65;;;17.50;99.90;;;;;;5031310;28;20022;-75
2021/07/08 06:51:45;;;;;;;15.57;10.38;;;17.50;99.90;;;;;;5033770;28;20732;-74
2021/07/08 06:54:10;;;;;;;13.05;11.43;;;17.50;99.90;;;;;;5033790;28;20038;-75
2021/07/08 06:56:36;;;;;;;11.32;9.65;;;17.40;99.90;;;;;;5033577;28;20025;-75
2021/07/08 06:59:01;;;;;;;15.70;11.07;;;17.20;99.90;;;;;;5032456;28;20026;-75
2021/07/08 07:01:27;;;;;;;16.73;11.60;;;17.30;99.90;;;;;;5033651;28;20033;-75
2021/07/08 07:03:52;;;;;;;15.00;10.48;;;17.30;99.90;;;;;;5032255;28;20041;-75
2021/07/08 07:06:18;;;;;;;11.23;10.13;;;17.50;99.90;;;;;;5033457;28;20105;-75
2021/07/08 07:08:43;;;;;;;13.85;11.32;;;17.60;99.90;;;;;;5032137;28;20500;-76
2021/07/08 07:11:10;;;;;;;17.98;11.75;;;17.60;99.90;;;;;;5032325;28;20108;-75
2021/07/08 07:13:35;;;;;;;15.75;8.88;;;17.70;99.90;;;;;;5033507;28;20429;-76
2021/07/08 07:16:01;;;;;;;11.52;7.40;;;17.70;99.90;;;;;;5033141;28;20568;-75
2021/07/08 07:18:26;;;;;;;8.35;6.28;;;17.70;99.90;;;;;;5032045;28;20017;-75
2021/07/08 07:20:52;;;;;;;6.13;4.88;;;17.70;99.90;;;;;;5030775;28;20029;-75
2021/07/08 07:23:18;;;;;;;5.63;5.10;;;17.80;99.90;;;;;;5031961;28;20021;-77
2021/07/08 07:25:45;;;;;;;9.52;6.45;;;17.90;99.90;;;;;;5032791;28;20029;-76
2021/07/08 07:28:11;;;;;;;11.40;7.05;;;17.70;99.90;;;;;;5033062;28;20087;-75
2021/07/08 07:30:38;;;;;;;10.98;8.13;;;17.70;99.90;;;;;;5033176;28;20025;-76
2021/07/08 07:33:04;;;;;;;10.88;8.20;;;17.60;99.90;;;;;;5033134;28;20079;-75
2021/07/08 07:35:30;;;;;;;9.48;8.55;;;17.50;99.90;;;;;;5031391;28;20393;-77
2021/07/08 07:37:56;;;;;;;10.35;7.70;;;17.70;99.90;;;;;;5032930;28;20044;-77
2021/07/08 07:40:22;;;;;;;8.18;7.18;;;17.90;99.90;;;;;;5031611;28;20026;-77
2021/07/08 07:42:48;;;;;;;9.75;7.88;;;17.90;99.90;;;;;;5031547;28;20022;-76
2021/07/08 07:45:14;;;;;;;11.65;8.13;;;17.80;99.90;;;;;;5032566;28;20075;-76
2021/07/08 07:47:40;;;;;;;11.05;9.95;;;17.90;99.90;;;;;;5032731;28;20037;-77
2021/07/08 07:50:07;;;;;;;11.93;9.32;;;18.10;99.90;;;;;;5032764;28;20112;-77
2021/07/08 07:52:33;;;;;;;12.43;9.38;;;18.10;99.90;;;;;;5031386;28;20510;-76
2021/07/08 07:54:59;;;;;;;11.48;7.72;;;18.30;99.90;;;;;;5032465;28;20029;-76
2021/07/08 07:57:25;;;;;;;11.93;6.78;;;18.40;99.90;;;;;;5032654;28;20487;-76
2021/07/08 07:59:50;;;;;;;7.35;6.65;;;18.40;99.90;;;;;;5032419;28;20411;-76
2021/07/08 08:02:16;;;;;;;8.27;5.53;;;18.30;99.90;;;;;;5031517;28;20069;-77
2021/07/08 08:04:53;;;;;;;8.07;6.53;;;18.30;99.90;;;;;;5032141;28;20043;-77
2021/07/08 08:10:04;;;;;;;7.65;5.20;;;18.20;99.90;;;;;;5017100;28;20041;-77
2021/07/08 08:12:30;;;;;;;6.47;4.55;;;18.20;99.90;;;;;;5028575;28;20029;-76
2021/07/08 08:14:56;;;;;;;7.72;5.50;;;18.30;99.90;;;;;;5032180;28;20043;-76
2021/07/08 08:17:21;;;;;;;5.30;4.80;;;18.30;99.90;;;;;;5030956;28;20021;-76
2021/07/08 08:19:47;;;;;;;5.60;4.82;;;18.40;99.90;;;;;;5032184;28;20108;-76
2021/07/08 08:22:13;;;;;;;5.40;4.90;;;18.30;99.90;;;;;;5032201;28;20037;-76
2021/07/08 08:24:39;;;;;;;7.57;5.30;;;18.30;99.90;;;;;;5030867;28;20475;-76
2021/07/08 08:27:06;;;;;;;6.50;5.90;;;18.40;99.90;;;;;;5030730;28;20088;-76
2021/07/08 08:29:32;;;;;;;6.72;6.05;;;18.40;99.90;;;;;;5030721;28;20048;-77
2021/07/08 08:31:57;;;;;;;5.90;5.30;;;18.50;99.90;;;;;;5030913;28;20083;-77
2021/07/08 08:34:23;;;;;;;6.25;5.65;;;18.50;99.90;;;;;;5030549;28;20021;-75
2021/07/08 08:36:48;;;;;;;6.10;5.60;;;18.60;99.90;;;;;;5031938;28;20467;-75
2021/07/08 08:39:14;;;;;;;8.98;6.22;;;18.60;99.90;;;;;;5031970;28;20057;-75
2021/07/08 08:41:39;;;;;;;7.65;4.80;;;18.60;99.90;;;;;;5031819;28;20025;-75
2021/07/08 08:44:06;;;;;;;7.80;5.68;;;18.80;99.90;;;;;;5031859;28;20026;-75
2021/07/08 08:46:35;;;;;;;5.28;4.78;;;18.80;99.90;;;;;;5030478;28;20455;-75
2021/07/08 08:49:04;;;;;;;5.18;4.78;;;19.00;99.90;;;;;;5031753;28;20040;-76
2021/07/08 08:51:30;;;;;;;3.78;3.20;;;19.00;99.90;;;;;;5032357;28;20036;-76
2021/07/08 08:53:56;;;;;;;3.65;3.35;;;19.00;99.90;;;;;;5031879;28;20488;-76
2021/07/08 08:56:22;;;;;;;3.30;2.90;;;19.10;99.90;;;;;;5030214;28;20075;-76
2021/07/08 08:58:47;;;;;;;3.40;3.08;;;19.30;99.90;;;;;;5031795;28;20037;-75
2021/07/08 09:01:17;;;;;;;6.28;5.63;;;19.10;99.90;;;;;;5035843;28;20136;-75
2021/07/08 09:03:44;;;;;;;6.22;5.45;;;18.70;99.90;;;;;;5035722;28;20076;-75
2021/07/08 09:06:12;;;;;;;7.80;7.10;;;18.80;99.90;;;;;;5034180;28;20029;-75
2021/07/08 09:08:39;;;;;;;6.82;5.68;;;18.90;99.90;;;;;;5035577;28;20175;-75
2021/07/08 09:11:12;;;;;;;6.65;5.95;;;18.70;99.90;;;;;;5034908;28;20021;-75
2021/07/08 09:14:00;;;;;;;8.18;5.50;;;18.90;99.90;;;;;;5035668;28;20022;-75
2021/07/08 09:16:30;;;;;;;10.50;7.10;;;19.00;99.90;;;;;;5023993;28;20030;-75
2021/07/08 09:18:58;;;;;;;8.63;6.82;;;19.20;99.90;;;;;;5034858;28;20038;-76
2021/07/08 09:21:25;;;;;;;13.68;10.02;;;19.20;99.90;;;;;;5035601;28;20033;-76
2021/07/08 09:24:07;;;;;;;14.55;10.10;;;19.30;99.90;;;;;;5035497;28;20032;-76
2021/07/08 09:26:34;;;;;;;13.88;10.55;;;19.30;99.90;;;;;;5035206;28;20388;-76
2021/07/08 09:29:18;;;;;;;13.05;9.68;;;19.20;99.90;;;;;;5035378;28;20083;-76
2021/07/08 09:31:59;;;;;;;13.52;9.77;;;19.10;99.90;;;;;;5035377;28;20020;-76
2021/07/08 09:34:30;;;;;;;10.60;7.35;;;19.30;99.90;;;;;;5035155;28;20017;-76
2021/07/08 09:37:17;;;;;;;13.07;9.13;;;19.50;99.90;;;;;;5035175;28;20021;-76
2021/07/08 09:39:44;;;;;;;9.38;6.35;;;20.10;99.90;;;;;;5034021;28;20033;-76
2021/07/08 09:42:15;;;;;;;7.72;6.60;;;20.30;99.90;;;;;;5033881;28;20520;-75
2021/07/08 09:44:42;;;;;;;7.80;6.32;;;20.40;99.90;;;;;;5035056;28;20064;-75
2021/07/08 09:47:27;;;;;;;6.93;5.60;;;20.20;99.90;;;;;;5035089;28;20125;-75
2021/07/08 09:49:52;;;;;;;6.95;5.30;;;20.30;99.90;;;;;;5035067;28;20021;-75
2021/07/08 09:52:18;;;;;;;8.30;4.80;;;20.50;99.90;;;;;;5035046;28;20103;-76
2021/07/08 09:57:48;;;;;;;5.53;4.60;;;20.70;99.90;;;;;;5035250;28;20025;-77
2021/07/08 10:00:19;;;;;;;5.45;4.00;;;20.70;99.90;;;;;;5023098;28;20128;-77
2021/07/08 10:02:46;;;;;;;4.30;3.70;;;20.30;99.90;;;;;;5034950;28;20510;-76
2021/07/08 10:05:12;;;;;;;6.88;5.05;;;20.40;99.90;;;;;;5033547;28;20040;-76
2021/07/08 10:07:38;;;;;;;6.47;5.40;;;20.70;99.90;;;;;;5034685;28;20023;-76
2021/07/08 10:10:06;;;;;;;6.00;4.97;;;20.90;99.90;;;;;;5034267;28;20475;-76
2021/07/08 10:12:32;;;;;;;5.43;4.20;;;21.10;99.90;;;;;;5033710;28;20427;-77
2021/07/08 10:15:01;;;;;;;6.38;3.83;;;20.80;99.90;;;;;;5034843;28;20026;-76
2021/07/08 10:17:30;;;;;;;5.55;3.58;;;21.00;99.90;;;;;;5034330;28;20125;-77
2021/07/08 10:19:56;;;;;;;4.35;3.88;;;21.00;99.90;;;;;;5047901;28;20021;-78
2021/07/08 10:22:23;;;;;;;4.10;3.30;;;21.10;99.90;;;;;;5044050;28;20024;-77
2021/07/08 10:24:49;;;;;;;4.82;4.00;;;20.70;99.90;;;;;;5040145;28;20043;-77
2021/07/08 10:27:17;;;;;;;4.90;3.45;;;20.90;99.90;;;;;;5042693;28;20021;-77
2021/07/08 10:29:43;;;;;;;3.85;3.45;;;21.00;99.90;;;;;;5033923;28;20033;-77
2021/07/08 10:32:13;;;;;;;3.38;3.08;;;21.10;99.90;;;;;;5042760;28;20029;-77
2021/07/08 10:34:49;;;;;;;3.88;3.05;;;21.20;99.90;;;;;;5047636;28;20418;-77
2021/07/08 10:37:33;;;;;;;3.35;2.90;;;21.10;99.90;;;;;;5042510;28;20033;-76
2021/07/08 10:40:01;;;;;;;3.40;2.90;;;20.90;99.90;;;;;;5042233;28;20364;-77
2021/07/08 10:42:48;;;;;;;4.35;2.70;;;21.00;99.90;;;;;;5044595;28;20052;-77
2021/07/08 10:45:23;;;;;;;3.55;3.10;;;20.90;99.90;;;;;;5045082;28;20066;-76
2021/07/08 10:47:50;;;;;;;3.78;2.85;;;20.80;99.90;;;;;;5045196;28;20028;-76
2021/07/08 10:50:53;;;;;;;5.15;3.65;;;20.80;99.90;;;;;;5043380;28;20072;-77
2021/07/08 10:53:30;;;;;;;3.30;2.70;;;20.70;99.90;;;;;;5043291;28;21198;-77
2021/07/08 10:55:57;;;;;;;3.33;3.03;;;21.00;99.90;;;;;;5045024;28;20029;-77
2021/07/08 10:58:47;;;;;;;3.67;3.20;;;21.00;99.90;;;;;;5042230;28;20113;-76
2021/07/08 11:01:42;;;;;;;3.20;2.90;;;21.20;99.90;;;;;;5043968;28;20025;-76
2021/07/08 11:04:08;;;;;;;4.47;2.88;;;21.10;99.90;;;;;;5040819;28;20045;-77
2021/07/08 11:06:38;;;;;;;3.90;2.80;;;21.30;99.90;;;;;;5042840;28;20024;-77
2021/07/08 11:09:07;;;;;;;4.03;2.63;;;21.40;99.90;;;;;;5039071;28;20024;-77
2021/07/08 11:11:33;;;;;;;3.40;3.00;;;21.60;99.90;;;;;;5045365;28;20024;-76
2021/07/08 11:14:08;;;;;;;4.93;3.70;;;22.00;99.90;;;;;;5043114;28;20092;-76
2021/07/08 11:16:43;;;;;;;4.30;3.90;;;22.30;99.90;;;;;;5043378;28;20020;-76
2021/07/08 11:19:15;;;;;;;5.35;3.70;;;22.10;99.90;;;;;;5044693;28;20040;-76
2021/07/08 11:21:52;;;;;;;5.38;4.13;;;21.80;99.90;;;;;;5046386;28;20025;-77
2021/07/08 11:24:20;;;;;;;4.25;3.83;;;21.50;99.90;;;;;;5041921;28;20029;-77
2021/07/08 11:27:05;;;;;;;4.57;3.70;;;21.50;99.90;;;;;;5045151;28;20032;-76
2021/07/08 11:29:46;;;;;;;4.75;3.65;;;21.60;99.90;;;;;;5033296;28;20086;-77
2021/07/08 11:32:43;;;;;;;4.28;3.17;;;22.00;99.90;;;;;;5042562;28;20052;-76
2021/07/08 11:35:14;;;;;;;4.43;3.17;;;22.00;99.90;;;;;;5032870;28;20410;-76
2021/07/08 11:37:43;;;;;;;3.40;3.08;;;22.10;99.90;;;;;;5031597;28;20057;-78
2021/07/08 11:40:15;;;;;;;4.78;3.25;;;21.80;99.90;;;;;;5032991;28;20017;-77
2021/07/08 11:42:42;;;;;;;4.05;3.30;;;22.00;99.90;;;;;;5032972;28;20026;-77
2021/07/08 11:45:12;;;;;;;3.28;2.97;;;22.00;99.90;;;;;;5032690;28;20033;-76
2021/07/08 11:47:42;;;;;;;3.67;3.38;;;21.60;99.90;;;;;;5031428;28;20053;-77
2021/07/08 11:50:18;;;;;;;3.05;2.83;;;21.30;99.90;;;;;;5031493;28;20513;-76
2021/07/08 11:52:44;;;;;;;3.50;3.20;;;21.10;99.90;;;;;;5032720;28;20048;-76
2021/07/08 11:55:10;;;;;;;3.38;3.10;;;21.30;99.90;;;;;;5032628;28;20030;-74
2021/07/08 11:57:58;;;;;;;4.15;3.33;;;21.70;99.90;;;;;;5032477;28;20021;-74
2021/07/08 12:00:47;;;;;;;3.40;2.60;;;22.20;99.90;;;;;;5032564;28;20021;-76
2021/07/08 12:03:26;;;;;;;3.67;2.53;;;23.00;99.90;;;;;;5032438;28;20045;-76
2021/07/08 12:06:12;;;;;;;3.60;2.65;;;23.40;99.90;;;;;;5032308;28;20048;-79
2021/07/08 12:08:45;;;;;;;2.83;2.63;;;23.90;99.90;;;;;;5037493;28;20108;-77
2021/07/08 12:11:13;;;;;;;3.63;2.50;;;23.10;99.90;;;;;;5036952;28;20104;-77
2021/07/08 12:14:03;;;;;;;3.17;2.97;;;22.80;99.90;;;;;;5034894;28;20052;-78
2021/07/08 12:16:31;;;;;;;2.50;2.30;;;23.20;99.90;;;;;;5023293;28;20025;-79
2021/07/08 12:19:01;;;;;;;2.70;2.40;;;22.80;99.90;;;;;;5036045;28;20025;-78
2021/07/08 12:21:32;;;;;;;2.50;2.30;;;22.90;99.90;;;;;;5035734;28;20030;-77
2021/07/08 12:24:04;;;;;;;2.60;2.40;;;23.10;99.90;;;;;;5035160;28;20055;-77
2021/07/08 12:26:41;;;;;;;2.35;2.15;;;22.80;99.90;;;;;;5034242;28;20100;-77
2021/07/08 12:29:38;;;;;;;2.92;2.70;;;22.90;99.90;;;;;;5033707;28;20033;-76
2021/07/08 12:32:19;;;;;;;2.95;2.60;;;22.50;99.90;;;;;;5030803;28;20021;-76
2021/07/08 12:34:47;;;;;;;3.40;2.80;;;22.10;99.90;;;;;;5030639;28;20393;-76
2021/07/08 12:37:27;;;;;;;3.10;2.80;;;21.90;99.90;;;;;;5031872;28;20068;-76
2021/07/08 12:40:05;;;;;;;3.67;2.80;;;21.70;99.90;;;;;;5030819;28;20067;-77
2021/07/08 12:42:32;;;;;;;3.95;2.97;;;22.10;99.90;;;;;;5035597;28;20369;-75
2021/07/08 12:45:00;;;;;;;3.17;2.55;;;22.20;99.90;;;;;;5031645;28;20105;-75
2021/07/08 12:47:26;;;;;;;3.78;2.83;;;22.30;99.90;;;;;;5031775;28;20096;-76
2021/07/08 12:49:53;;;;;;;4.63;2.72;;;22.40;99.90;;;;;;5031800;28;20165;-75
2021/07/08 12:52:21;;;;;;;3.78;2.78;;;22.30;99.90;;;;;;5032418;28;20022;-75
2021/07/08 12:54:47;;;;;;;6.57;3.20;;;22.10;99.90;;;;;;5031560;28;20025;-75